sensor_id;sensor_type;location;lat;lon;timestamp;temperature;humidity
5041;DHT22;2539;52.568;13.364;2023-02-18T00:01:17;7.20;99.90
5041;DHT22;2539;52.568;13.364;2023-02-18T00:03:43;7.20;99.90
5041;DHT22;2539;52.568;13.364;2023-02-18T00:06:21;7.20;99.90
5041;DHT22;2539;52.568;13.364;2023-02-18T00:08:48;7.20;99.90
5041;DHT22;2539;52.568;13.364;2023-02-18T00:11:15;7.20;99.90
5041;DHT22;2539;52.568;13.364;2023-02-18T00:13:42;7.20;99.90
5041;DHT22;2539;52.568;13.364;2023-02-18T00:16:10;7.10;99.90
5041;DHT22;2539;52.568;13.364;2023-02-18T00:18:37;7.10;99.90
5041;DHT22;2539;52.568;13.364;2023-02-18T00:21:05;7.00;99.90
5041;DHT22;2539;52.568;13.364;2023-02-18T00:23:31;7.00;99.90
5041;DHT22;2539;52.568;13.364;2023-02-18T00:26:10;7.00;99.90
5041;DHT22;2539;52.568;13.364;2023-02-18T00:28:36;6.90;99.90
5041;DHT22;2539;52.568;13.364;2023-02-18T00:31:24;6.90;99.90
5041;DHT22;2539;52.568;13.364;2023-02-18T00:33:51;6.90;99.90
5041;DHT22;2539;52.568;13.364;2023-02-18T00:36:19;6.80;99.90
5041;DHT22;2539;52.568;13.364;2023-02-18T00:38:47;6.80;99.90
5041;DHT22;2539;52.568;13.364;2023-02-18T00:41:14;6.70;99.90
5041;DHT22;2539;52.568;13.364;2023-02-18T00:43:40;6.70;99.90
5041;DHT22;2539;52.568;13.364;2023-02-18T00:46:08;6.70;99.90
5041;DHT22;2539;52.568;13.364;2023-02-18T00:48:34;6.70;99.90
5041;DHT22;2539;52.568;13.364;2023-02-18T00:51:02;6.60;99.90
5041;DHT22;2539;52.568;13.364;2023-02-18T00:53:29;6.60;99.90
5041;DHT22;2539;52.568;13.364;2023-02-18T00:55:55;6.60;99.90
5041;DHT22;2539;52.568;13.364;2023-02-18T00:58:22;6.60;99.90
5041;DHT22;2539;52.568;13.364;2023-02-18T01:00:49;6.60;99.90
5041;DHT22;2539;52.568;13.364;2023-02-18T01:03:19;6.50;99.90
5041;DHT22;2539;52.568;13.364;2023-02-18T01:05:47;6.50;99.90
5041;DHT22;2539;52.568;13.364;2023-02-18T01:08:16;6.50;99.90
5041;DHT22;2539;52.568;13.364;2023-02-18T01:10:45;6.50;99.90
5041;DHT22;2539;52.568;13.364;2023-02-18T01:13:13;6.50;99.90
5041;DHT22;2539;52.568;13.364;2023-02-18T01:15:40;6.30;99.90
5041;DHT22;2539;52.568;13.364;2023-02-18T01:18:08;6.40;99.90
5041;DHT22;2539;52.568;13.364;2023-02-18T01:20:39;6.40;99.90
5041;DHT22;2539;52.568;13.364;2023-02-18T01:23:06;6.40;99.90
5041;DHT22;2539;52.568;13.364;2023-02-18T01:25:33;6.30;99.90
5041;DHT22;2539;52.568;13.364;2023-02-18T01:28:00;6.30;99.90
5041;DHT22;2539;52.568;13.364;2023-02-18T01:30:26;6.30;99.90
5041;DHT22;2539;52.568;13.364;2023-02-18T01:32:53;6.30;99.90
5041;DHT22;2539;52.568;13.364;2023-02-18T01:35:20;6.30;99.90
5041;DHT22;2539;52.568;13.364;2023-02-18T01:37:47;6.30;99.90
5041;DHT22;2539;52.568;13.364;2023-02-18T01:40:16;6.40;99.90
5041;DHT22;2539;52.568;13.364;2023-02-18T01:42:42;6.30;99.90
5041;DHT22;2539;52.568;13.364;2023-02-18T01:48:07;6.30;99.90
5041;DHT22;2539;52.568;13.364;2023-02-18T01:50:39;6.30;99.90
5041;DHT22;2539;52.568;13.364;2023-02-18T01:53:07;6.30;99.90
5041;DHT22;2539;52.568;13.364;2023-02-18T01:55:34;6.30;99.90
5041;DHT22;2539;52.568;13.364;2023-02-18T01:58:02;6.40;99.90
5041;DHT22;2539;52.568;13.364;2023-02-18T02:00:28;6.30;99.90
5041;DHT22;2539;52.568;13.364;2023-02-18T02:02:56;6.30;99.90
5041;DHT22;2539;52.568;13.364;2023-02-18T02:05:22;6.20;99.90
5041;DHT22;2539;52.568;13.364;2023-02-18T02:07:51;6.30;99.90
5041;DHT22;2539;52.568;13.364;2023-02-18T02:10:19;6.30;99.90
5041;DHT22;2539;52.568;13.364;2023-02-18T02:13:07;6.30;99.90
5041;DHT22;2539;52.568;13.364;2023-02-18T02:15:57;6.20;99.90
5041;DHT22;2539;52.568;13.364;2023-02-18T02:18:55;6.20;99.90
5041;DHT22;2539;52.568;13.364;2023-02-18T02:24:10;6.30;99.90
5041;DHT22;2539;52.568;13.364;2023-02-18T02:26:56;6.30;99.90
5041;DHT22;2539;52.568;13.364;2023-02-18T02:35:19;6.20;99.90
5041;DHT22;2539;52.568;13.364;2023-02-18T02:37:55;6.20;99.90
5041;DHT22;2539;52.568;13.364;2023-02-18T02:45:58;6.20;99.90
5041;DHT22;2539;52.568;13.364;2023-02-18T02:49:00;6.10;99.90
5041;DHT22;2539;52.568;13.364;2023-02-18T02:51:53;6.20;99.90
5041;DHT22;2539;52.568;13.364;2023-02-18T02:54:23;6.10;99.90
5041;DHT22;2539;52.568;13.364;2023-02-18T02:57:02;6.10;99.90
5041;DHT22;2539;52.568;13.364;2023-02-18T02:59:29;6.10;99.90
5041;DHT22;2539;52.568;13.364;2023-02-18T03:02:17;6.10;99.90
5041;DHT22;2539;52.568;13.364;2023-02-18T03:05:02;6.10;99.90
5041;DHT22;2539;52.568;13.364;2023-02-18T03:08:18;6.20;99.90
5041;DHT22;2539;52.568;13.364;2023-02-18T03:11:01;6.10;99.90
5041;DHT22;2539;52.568;13.364;2023-02-18T03:13:44;6.10;99.90
5041;DHT22;2539;52.568;13.364;2023-02-18T03:19:18;5.80;99.90
5041;DHT22;2539;52.568;13.364;2023-02-18T03:22:10;6.10;99.90
5041;DHT22;2539;52.568;13.364;2023-02-18T03:24:50;6.10;99.90
5041;DHT22;2539;52.568;13.364;2023-02-18T03:27:22;6.10;99.90
5041;DHT22;2539;52.568;13.364;2023-02-18T03:30:10;6.10;99.90
5041;DHT22;2539;52.568;13.364;2023-02-18T03:32:37;6.10;99.90
5041;DHT22;2539;52.568;13.364;2023-02-18T03:35:09;6.20;99.90
5041;DHT22;2539;52.568;13.364;2023-02-18T03:37:41;6.10;99.90
5041;DHT22;2539;52.568;13.364;2023-02-18T03:40:09;6.10;99.90
5041;DHT22;2539;52.568;13.364;2023-02-18T03:42:36;6.20;99.90
5041;DHT22;2539;52.568;13.364;2023-02-18T03:45:03;6.20;99.90
5041;DHT22;2539;52.568;13.364;2023-02-18T03:47:29;6.20;99.90
5041;DHT22;2539;52.568;13.364;2023-02-18T03:49:55;6.10;99.90
5041;DHT22;2539;52.568;13.364;2023-02-18T03:52:22;6.20;99.90
5041;DHT22;2539;52.568;13.364;2023-02-18T03:54:48;6.10;99.90
5041;DHT22;2539;52.568;13.364;2023-02-18T03:57:15;6.10;99.90
5041;DHT22;2539;52.568;13.364;2023-02-18T03:59:42;6.10;99.90
5041;DHT22;2539;52.568;13.364;2023-02-18T04:02:08;6.10;99.90
5041;DHT22;2539;52.568;13.364;2023-02-18T04:04:34;6.10;99.90
5041;DHT22;2539;52.568;13.364;2023-02-18T04:07:01;6.10;99.90
5041;DHT22;2539;52.568;13.364;2023-02-18T04:09:27;6.10;99.90
5041;DHT22;2539;52.568;13.364;2023-02-18T04:11:53;6.10;99.90
5041;DHT22;2539;52.568;13.364;2023-02-18T04:14:19;6.00;99.90
5041;DHT22;2539;52.568;13.364;2023-02-18T04:16:44;6.00;99.90
5041;DHT22;2539;52.568;13.364;2023-02-18T04:19:10;6.10;99.90
5041;DHT22;2539;52.568;13.364;2023-02-18T04:21:36;6.10;99.90
5041;DHT22;2539;52.568;13.364;2023-02-18T04:24:02;6.00;99.90
5041;DHT22;2539;52.568;13.364;2023-02-18T04:26:29;6.10;99.90
5041;DHT22;2539;52.568;13.364;2023-02-18T04:28:55;6.10;99.90
5041;DHT22;2539;52.568;13.364;2023-02-18T04:31:21;6.00;99.90
5041;DHT22;2539;52.568;13.364;2023-02-18T04:33:48;6.00;99.90
5041;DHT22;2539;52.568;13.364;2023-02-18T04:36:14;6.00;99.90
5041;DHT22;2539;52.568;13.364;2023-02-18T04:38:40;6.00;99.90
5041;DHT22;2539;52.568;13.364;2023-02-18T04:41:08;5.90;99.90
5041;DHT22;2539;52.568;13.364;2023-02-18T04:43:34;5.90;99.90
5041;DHT22;2539;52.568;13.364;2023-02-18T04:46:00;5.90;99.90
5041;DHT22;2539;52.568;13.364;2023-02-18T04:48:26;6.00;99.90
5041;DHT22;2539;52.568;13.364;2023-02-18T04:50:53;5.90;99.90
5041;DHT22;2539;52.568;13.364;2023-02-18T04:53:19;5.90;99.90
5041;DHT22;2539;52.568;13.364;2023-02-18T04:55:49;5.80;99.90
5041;DHT22;2539;52.568;13.364;2023-02-18T04:58:17;5.80;99.90
5041;DHT22;2539;52.568;13.364;2023-02-18T05:00:43;6.80;99.90
5041;DHT22;2539;52.568;13.364;2023-02-18T05:03:10;5.70;99.90
5041;DHT22;2539;52.568;13.364;2023-02-18T05:05:36;5.90;99.90
5041;DHT22;2539;52.568;13.364;2023-02-18T05:08:04;5.80;99.90
5041;DHT22;2539;52.568;13.364;2023-02-18T05:10:30;5.80;99.90
5041;DHT22;2539;52.568;13.364;2023-02-18T05:12:56;5.80;99.90
5041;DHT22;2539;52.568;13.364;2023-02-18T05:15:23;5.80;99.90
5041;DHT22;2539;52.568;13.364;2023-02-18T05:17:49;5.70;99.90
5041;DHT22;2539;52.568;13.364;2023-02-18T05:20:15;5.70;99.90
5041;DHT22;2539;52.568;13.364;2023-02-18T05:22:42;5.70;99.90
5041;DHT22;2539;52.568;13.364;2023-02-18T05:25:08;5.80;99.90
5041;DHT22;2539;52.568;13.364;2023-02-18T05:27:34;5.80;99.90
5041;DHT22;2539;52.568;13.364;2023-02-18T05:30:00;5.80;99.90
5041;DHT22;2539;52.568;13.364;2023-02-18T05:32:27;5.90;99.90
5041;DHT22;2539;52.568;13.364;2023-02-18T05:34:53;5.90;99.90
5041;DHT22;2539;52.568;13.364;2023-02-18T05:37:19;5.90;99.90
5041;DHT22;2539;52.568;13.364;2023-02-18T05:39:46;6.00;99.90
5041;DHT22;2539;52.568;13.364;2023-02-18T05:42:12;6.10;99.90
5041;DHT22;2539;52.568;13.364;2023-02-18T05:44:38;6.10;99.90
5041;DHT22;2539;52.568;13.364;2023-02-18T05:47:07;6.20;99.90
5041;DHT22;2539;52.568;13.364;2023-02-18T05:49:34;6.20;99.90
5041;DHT22;2539;52.568;13.364;2023-02-18T05:52:00;6.20;99.90
5041;DHT22;2539;52.568;13.364;2023-02-18T05:54:27;6.20;99.90
5041;DHT22;2539;52.568;13.364;2023-02-18T05:56:53;6.20;99.90
5041;DHT22;2539;52.568;13.364;2023-02-18T05:59:20;6.30;99.90
5041;DHT22;2539;52.568;13.364;2023-02-18T06:01:47;6.30;99.90
5041;DHT22;2539;52.568;13.364;2023-02-18T06:04:13;6.30;99.90
5041;DHT22;2539;52.568;13.364;2023-02-18T06:06:41;6.30;99.90
5041;DHT22;2539;52.568;13.364;2023-02-18T06:09:07;6.40;99.90
5041;DHT22;2539;52.568;13.364;2023-02-18T06:11:33;6.30;99.90
5041;DHT22;2539;52.568;13.364;2023-02-18T06:13:59;6.40;99.90
5041;DHT22;2539;52.568;13.364;2023-02-18T06:16:25;6.40;99.90
5041;DHT22;2539;52.568;13.364;2023-02-18T06:18:52;6.50;99.90
5041;DHT22;2539;52.568;13.364;2023-02-18T06:21:18;6.50;99.90
5041;DHT22;2539;52.568;13.364;2023-02-18T06:23:44;6.50;99.90
5041;DHT22;2539;52.568;13.364;2023-02-18T06:26:11;6.50;99.90
5041;DHT22;2539;52.568;13.364;2023-02-18T06:28:37;6.50;99.90
5041;DHT22;2539;52.568;13.364;2023-02-18T06:31:03;6.50;99.90
5041;DHT22;2539;52.568;13.364;2023-02-18T06:33:30;6.50;99.90
5041;DHT22;2539;52.568;13.364;2023-02-18T06:35:58;6.60;99.90
5041;DHT22;2539;52.568;13.364;2023-02-18T06:38:26;6.70;99.90
5041;DHT22;2539;52.568;13.364;2023-02-18T06:40:53;6.70;99.90
5041;DHT22;2539;52.568;13.364;2023-02-18T06:43:20;6.90;99.90
5041;DHT22;2539;52.568;13.364;2023-02-18T06:45:47;6.90;99.90
5041;DHT22;2539;52.568;13.364;2023-02-18T06:48:13;7.00;99.90
5041;DHT22;2539;52.568;13.364;2023-02-18T06:50:40;7.00;99.90
5041;DHT22;2539;52.568;13.364;2023-02-18T06:53:07;7.00;99.90
5041;DHT22;2539;52.568;13.364;2023-02-18T06:55:33;6.90;99.90
5041;DHT22;2539;52.568;13.364;2023-02-18T06:57:59;6.90;99.90
5041;DHT22;2539;52.568;13.364;2023-02-18T07:00:26;6.90;99.90
5041;DHT22;2539;52.568;13.364;2023-02-18T07:02:52;6.90;99.90
5041;DHT22;2539;52.568;13.364;2023-02-18T07:05:18;6.90;99.90
5041;DHT22;2539;52.568;13.364;2023-02-18T07:07:45;6.90;99.90
5041;DHT22;2539;52.568;13.364;2023-02-18T07:10:11;7.00;99.90
5041;DHT22;2539;52.568;13.364;2023-02-18T07:12:38;7.00;99.90
5041;DHT22;2539;52.568;13.364;2023-02-18T07:15:04;7.00;99.90
5041;DHT22;2539;52.568;13.364;2023-02-18T07:17:30;7.10;99.90
5041;DHT22;2539;52.568;13.364;2023-02-18T07:19:57;7.00;99.90
5041;DHT22;2539;52.568;13.364;2023-02-18T07:22:23;7.10;99.90
5041;DHT22;2539;52.568;13.364;2023-02-18T07:24:51;7.00;99.90
5041;DHT22;2539;52.568;13.364;2023-02-18T07:27:18;7.10;99.90
5041;DHT22;2539;52.568;13.364;2023-02-18T07:29:45;7.20;99.90
5041;DHT22;2539;52.568;13.364;2023-02-18T07:32:12;7.20;99.90
5041;DHT22;2539;52.568;13.364;2023-02-18T07:34:39;7.20;99.90
5041;DHT22;2539;52.568;13.364;2023-02-18T07:37:05;7.20;99.90
5041;DHT22;2539;52.568;13.364;2023-02-18T07:39:41;7.20;99.90
5041;DHT22;2539;52.568;13.364;2023-02-18T07:42:09;7.30;99.90
5041;DHT22;2539;52.568;13.364;2023-02-18T07:44:36;7.30;99.90
5041;DHT22;2539;52.568;13.364;2023-02-18T07:47:04;7.40;99.90
5041;DHT22;2539;52.568;13.364;2023-02-18T07:49:31;7.40;99.90
5041;DHT22;2539;52.568;13.364;2023-02-18T07:51:57;7.40;99.90
5041;DHT22;2539;52.568;13.364;2023-02-18T07:54:24;7.60;99.90
5041;DHT22;2539;52.568;13.364;2023-02-18T07:56:50;7.60;99.90
5041;DHT22;2539;52.568;13.364;2023-02-18T07:59:17;7.50;99.90
5041;DHT22;2539;52.568;13.364;2023-02-18T08:01:44;7.60;99.90
5041;DHT22;2539;52.568;13.364;2023-02-18T08:04:10;7.50;99.90
5041;DHT22;2539;52.568;13.364;2023-02-18T08:06:39;7.60;99.90
5041;DHT22;2539;52.568;13.364;2023-02-18T08:09:06;7.60;99.90
5041;DHT22;2539;52.568;13.364;2023-02-18T08:11:33;7.50;99.90
5041;DHT22;2539;52.568;13.364;2023-02-18T08:13:59;7.70;99.90
5041;DHT22;2539;52.568;13.364;2023-02-18T08:16:26;7.60;99.90
5041;DHT22;2539;52.568;13.364;2023-02-18T08:18:52;7.50;99.90
5041;DHT22;2539;52.568;13.364;2023-02-18T08:21:21;7.60;99.90
5041;DHT22;2539;52.568;13.364;2023-02-18T08:23:48;7.50;99.90
5041;DHT22;2539;52.568;13.364;2023-02-18T08:26:14;7.60;99.90
5041;DHT22;2539;52.568;13.364;2023-02-18T08:28:45;7.60;99.90
5041;DHT22;2539;52.568;13.364;2023-02-18T08:31:21;7.60;99.90
5041;DHT22;2539;52.568;13.364;2023-02-18T08:33:48;7.60;99.90
5041;DHT22;2539;52.568;13.364;2023-02-18T08:36:14;7.40;99.90
5041;DHT22;2539;52.568;13.364;2023-02-18T08:38:41;7.30;99.90
5041;DHT22;2539;52.568;13.364;2023-02-18T08:41:08;7.40;99.90
5041;DHT22;2539;52.568;13.364;2023-02-18T08:43:35;7.40;99.90
5041;DHT22;2539;52.568;13.364;2023-02-18T08:46:02;7.30;99.90
5041;DHT22;2539;52.568;13.364;2023-02-18T08:48:29;7.70;99.90
5041;DHT22;2539;52.568;13.364;2023-02-18T08:50:55;7.30;99.90
5041;DHT22;2539;52.568;13.364;2023-02-18T08:53:22;7.30;99.90
5041;DHT22;2539;52.568;13.364;2023-02-18T08:55:50;7.20;99.90
5041;DHT22;2539;52.568;13.364;2023-02-18T08:58:17;7.40;99.90
5041;DHT22;2539;52.568;13.364;2023-02-18T09:00:44;7.40;99.90
5041;DHT22;2539;52.568;13.364;2023-02-18T09:03:12;7.50;99.90
5041;DHT22;2539;52.568;13.364;2023-02-18T09:05:39;7.50;99.90
5041;DHT22;2539;52.568;13.364;2023-02-18T09:08:05;7.50;99.90
5041;DHT22;2539;52.568;13.364;2023-02-18T09:10:32;7.20;99.90
5041;DHT22;2539;52.568;13.364;2023-02-18T09:12:58;7.20;99.90
5041;DHT22;2539;52.568;13.364;2023-02-18T09:15:24;7.50;99.90
5041;DHT22;2539;52.568;13.364;2023-02-18T09:17:51;7.60;99.90
5041;DHT22;2539;52.568;13.364;2023-02-18T09:20:17;7.60;99.90
5041;DHT22;2539;52.568;13.364;2023-02-18T09:22:43;7.60;99.90
5041;DHT22;2539;52.568;13.364;2023-02-18T09:25:10;7.70;99.90
5041;DHT22;2539;52.568;13.364;2023-02-18T09:27:36;7.50;99.90
5041;DHT22;2539;52.568;13.364;2023-02-18T09:30:04;7.50;99.90
5041;DHT22;2539;52.568;13.364;2023-02-18T09:32:30;7.40;99.90
5041;DHT22;2539;52.568;13.364;2023-02-18T09:34:57;7.40;99.90
5041;DHT22;2539;52.568;13.364;2023-02-18T09:37:23;7.40;99.90
5041;DHT22;2539;52.568;13.364;2023-02-18T09:39:49;7.40;99.90
5041;DHT22;2539;52.568;13.364;2023-02-18T09:42:19;7.40;99.90
5041;DHT22;2539;52.568;13.364;2023-02-18T09:44:53;7.50;99.90
5041;DHT22;2539;52.568;13.364;2023-02-18T09:47:36;7.70;99.90
5041;DHT22;2539;52.568;13.364;2023-02-18T09:50:18;7.90;99.90
5041;DHT22;2539;52.568;13.364;2023-02-18T09:52:45;7.90;99.90
5041;DHT22;2539;52.568;13.364;2023-02-18T09:55:22;7.80;99.90
5041;DHT22;2539;52.568;13.364;2023-02-18T09:57:51;7.90;99.90
5041;DHT22;2539;52.568;13.364;2023-02-18T10:00:26;7.90;99.90
5041;DHT22;2539;52.568;13.364;2023-02-18T10:03:05;7.90;99.90
5041;DHT22;2539;52.568;13.364;2023-02-18T10:05:34;7.90;99.90
5041;DHT22;2539;52.568;13.364;2023-02-18T10:08:05;7.80;99.90
5041;DHT22;2539;52.568;13.364;2023-02-18T10:10:41;7.80;99.90
5041;DHT22;2539;52.568;13.364;2023-02-18T10:13:20;7.80;99.90
5041;DHT22;2539;52.568;13.364;2023-02-18T10:15:47;7.70;99.90
5041;DHT22;2539;52.568;13.364;2023-02-18T10:18:25;7.70;99.90
5041;DHT22;2539;52.568;13.364;2023-02-18T10:20:57;7.70;99.90
5041;DHT22;2539;52.568;13.364;2023-02-18T10:23:27;7.60;99.90
5041;DHT22;2539;52.568;13.364;2023-02-18T10:25:54;7.60;99.90
5041;DHT22;2539;52.568;13.364;2023-02-18T10:28:22;7.60;99.90
5041;DHT22;2539;52.568;13.364;2023-02-18T10:31:04;7.70;99.90
5041;DHT22;2539;52.568;13.364;2023-02-18T10:33:58;7.70;99.90
5041;DHT22;2539;52.568;13.364;2023-02-18T10:36:30;7.80;99.90
5041;DHT22;2539;52.568;13.364;2023-02-18T10:39:06;7.90;99.90
5041;DHT22;2539;52.568;13.364;2023-02-18T10:41:49;8.00;99.90
5041;DHT22;2539;52.568;13.364;2023-02-18T10:44:59;8.10;99.90
5041;DHT22;2539;52.568;13.364;2023-02-18T10:47:53;8.10;99.90
5041;DHT22;2539;52.568;13.364;2023-02-18T10:50:31;8.10;99.90
5041;DHT22;2539;52.568;13.364;2023-02-18T10:53:07;8.00;99.90
5041;DHT22;2539;52.568;13.364;2023-02-18T10:55:39;8.00;99.90
5041;DHT22;2539;52.568;13.364;2023-02-18T10:58:26;7.90;99.90
5041;DHT22;2539;52.568;13.364;2023-02-18T11:00:53;7.90;99.90
5041;DHT22;2539;52.568;13.364;2023-02-18T11:03:22;7.90;99.90
5041;DHT22;2539;52.568;13.364;2023-02-18T11:05:54;7.80;99.90
5041;DHT22;2539;52.568;13.364;2023-02-18T11:08:27;8.00;99.90
5041;DHT22;2539;52.568;13.364;2023-02-18T11:10:54;7.90;99.90
5041;DHT22;2539;52.568;13.364;2023-02-18T11:13:28;7.90;99.90
5041;DHT22;2539;52.568;13.364;2023-02-18T11:16:01;7.70;99.90
5041;DHT22;2539;52.568;13.364;2023-02-18T11:18:36;8.00;99.90
5041;DHT22;2539;52.568;13.364;2023-02-18T11:23:49;8.20;99.90
5041;DHT22;2539;52.568;13.364;2023-02-18T11:26:16;8.20;99.90
5041;DHT22;2539;52.568;13.364;2023-02-18T11:28:49;8.10;99.90
5041;DHT22;2539;52.568;13.364;2023-02-18T11:31:22;8.00;99.90
5041;DHT22;2539;52.568;13.364;2023-02-18T11:33:55;8.00;99.90
5041;DHT22;2539;52.568;13.364;2023-02-18T11:36:34;7.90;99.90
5041;DHT22;2539;52.568;13.364;2023-02-18T11:39:03;7.80;99.90
5041;DHT22;2539;52.568;13.364;2023-02-18T11:41:37;7.70;99.90
5041;DHT22;2539;52.568;13.364;2023-02-18T11:44:15;7.70;99.90
5041;DHT22;2539;52.568;13.364;2023-02-18T11:49:22;7.70;99.90
5041;DHT22;2539;52.568;13.364;2023-02-18T11:51:50;7.70;99.90
5041;DHT22;2539;52.568;13.364;2023-02-18T11:58:00;7.80;99.90
5041;DHT22;2539;52.568;13.364;2023-02-18T12:00:45;7.80;99.90
5041;DHT22;2539;52.568;13.364;2023-02-18T12:05:51;8.10;99.90
5041;DHT22;2539;52.568;13.364;2023-02-18T12:08:27;8.40;99.90
5041;DHT22;2539;52.568;13.364;2023-02-18T12:55:20;9.40;99.90
5041;DHT22;2539;52.568;13.364;2023-02-18T13:01:30;9.60;99.90
5041;DHT22;2539;52.568;13.364;2023-02-18T13:04:45;9.70;99.90
5041;DHT22;2539;52.568;13.364;2023-02-18T13:07:25;9.70;99.90
5041;DHT22;2539;52.568;13.364;2023-02-18T13:15:59;10.30;99.90
5041;DHT22;2539;52.568;13.364;2023-02-18T13:18:34;10.20;99.90
5041;DHT22;2539;52.568;13.364;2023-02-18T13:21:07;10.20;99.90
5041;DHT22;2539;52.568;13.364;2023-02-18T13:23:39;10.20;99.90
5041;DHT22;2539;52.568;13.364;2023-02-18T13:26:10;10.20;99.90
5041;DHT22;2539;52.568;13.364;2023-02-18T13:31:55;10.10;99.90
5041;DHT22;2539;52.568;13.364;2023-02-18T13:34:38;10.00;99.90
5041;DHT22;2539;52.568;13.364;2023-02-18T13:37:19;10.00;99.90
5041;DHT22;2539;52.568;13.364;2023-02-18T13:39:53;10.10;99.90
5041;DHT22;2539;52.568;13.364;2023-02-18T13:47:36;10.20;99.90
5041;DHT22;2539;52.568;13.364;2023-02-18T13:53:18;10.30;99.90
5041;DHT22;2539;52.568;13.364;2023-02-18T14:01:04;10.30;99.90
5041;DHT22;2539;52.568;13.364;2023-02-18T14:06:14;10.20;99.90
5041;DHT22;2539;52.568;13.364;2023-02-18T14:08:42;10.20;99.90
5041;DHT22;2539;52.568;13.364;2023-02-18T14:16:06;10.20;99.90
5041;DHT22;2539;52.568;13.364;2023-02-18T14:23:41;10.20;99.90
5041;DHT22;2539;52.568;13.364;2023-02-18T14:28:44;10.20;99.90
5041;DHT22;2539;52.568;13.364;2023-02-18T14:47:53;10.30;99.90
5041;DHT22;2539;52.568;13.364;2023-02-18T14:50:21;10.40;99.90
5041;DHT22;2539;52.568;13.364;2023-02-18T14:52:53;10.30;99.90
5041;DHT22;2539;52.568;13.364;2023-02-18T14:55:25;10.40;99.90
5041;DHT22;2539;52.568;13.364;2023-02-18T14:57:58;10.40;99.90
5041;DHT22;2539;52.568;13.364;2023-02-18T15:00:27;10.30;99.90
5041;DHT22;2539;52.568;13.364;2023-02-18T15:02:58;10.30;99.90
5041;DHT22;2539;52.568;13.364;2023-02-18T15:05:28;10.20;99.90
5041;DHT22;2539;52.568;13.364;2023-02-18T15:08:09;10.20;99.90
5041;DHT22;2539;52.568;13.364;2023-02-18T15:10:55;10.20;99.90
5041;DHT22;2539;52.568;13.364;2023-02-18T15:13:26;10.20;99.90
5041;DHT22;2539;52.568;13.364;2023-02-18T15:16:08;10.20;99.90
5041;DHT22;2539;52.568;13.364;2023-02-18T15:18:40;10.20;99.90
5041;DHT22;2539;52.568;13.364;2023-02-18T15:21:31;10.20;99.90
5041;DHT22;2539;52.568;13.364;2023-02-18T15:24:05;10.10;99.90
5041;DHT22;2539;52.568;13.364;2023-02-18T15:26:32;10.10;99.90
5041;DHT22;2539;52.568;13.364;2023-02-18T15:29:01;10.20;99.90
5041;DHT22;2539;52.568;13.364;2023-02-18T15:31:30;10.20;99.90
5041;DHT22;2539;52.568;13.364;2023-02-18T15:34:01;10.20;99.90
5041;DHT22;2539;52.568;13.364;2023-02-18T15:36:27;10.30;99.90
5041;DHT22;2539;52.568;13.364;2023-02-18T15:38:55;10.20;99.90
5041;DHT22;2539;52.568;13.364;2023-02-18T15:41:22;10.30;99.90
5041;DHT22;2539;52.568;13.364;2023-02-18T15:43:54;10.20;99.90
5041;DHT22;2539;52.568;13.364;2023-02-18T15:46:22;9.90;99.90
5041;DHT22;2539;52.568;13.364;2023-02-18T15:48:52;9.60;99.90
5041;DHT22;2539;52.568;13.364;2023-02-18T15:51:27;9.50;99.90
5041;DHT22;2539;52.568;13.364;2023-02-18T15:54:00;9.50;99.90
5041;DHT22;2539;52.568;13.364;2023-02-18T15:56:38;9.60;99.90
5041;DHT22;2539;52.568;13.364;2023-02-18T15:59:20;9.60;99.90
5041;DHT22;2539;52.568;13.364;2023-02-18T16:02:19;9.60;99.90
5041;DHT22;2539;52.568;13.364;2023-02-18T16:04:52;9.70;99.90
5041;DHT22;2539;52.568;13.364;2023-02-18T16:07:24;9.70;99.90
5041;DHT22;2539;52.568;13.364;2023-02-18T16:12:33;9.70;99.90
5041;DHT22;2539;52.568;13.364;2023-02-18T16:14:59;9.60;99.90
5041;DHT22;2539;52.568;13.364;2023-02-18T16:17:27;9.60;99.90
5041;DHT22;2539;52.568;13.364;2023-02-18T16:19:57;9.40;99.90
5041;DHT22;2539;52.568;13.364;2023-02-18T16:22:36;9.30;99.90
5041;DHT22;2539;52.568;13.364;2023-02-18T16:25:39;9.40;99.90
5041;DHT22;2539;52.568;13.364;2023-02-18T16:30:29;9.40;99.90
5041;DHT22;2539;52.568;13.364;2023-02-18T16:32:56;9.20;99.90
5041;DHT22;2539;52.568;13.364;2023-02-18T16:35:24;9.00;99.90
5041;DHT22;2539;52.568;13.364;2023-02-18T16:37:54;8.90;99.90
5041;DHT22;2539;52.568;13.364;2023-02-18T16:40:35;8.70;99.90
5041;DHT22;2539;52.568;13.364;2023-02-18T16:43:12;8.60;99.90
5041;DHT22;2539;52.568;13.364;2023-02-18T16:45:52;8.20;99.90
5041;DHT22;2539;52.568;13.364;2023-02-18T16:50:48;8.00;99.90
5041;DHT22;2539;52.568;13.364;2023-02-18T16:53:15;8.90;99.90
5041;DHT22;2539;52.568;13.364;2023-02-18T16:55:41;7.90;99.90
5041;DHT22;2539;52.568;13.364;2023-02-18T16:58:08;7.80;99.90
5041;DHT22;2539;52.568;13.364;2023-02-18T17:00:34;7.80;99.90
5041;DHT22;2539;52.568;13.364;2023-02-18T17:03:01;7.80;99.90
5041;DHT22;2539;52.568;13.364;2023-02-18T17:05:30;7.70;99.90
5041;DHT22;2539;52.568;13.364;2023-02-18T17:08:23;7.60;99.90
5041;DHT22;2539;52.568;13.364;2023-02-18T17:10:55;7.60;99.90
5041;DHT22;2539;52.568;13.364;2023-02-18T17:13:27;7.60;99.90
5041;DHT22;2539;52.568;13.364;2023-02-18T17:15:55;7.50;99.90
5041;DHT22;2539;52.568;13.364;2023-02-18T17:18:22;7.50;99.90
5041;DHT22;2539;52.568;13.364;2023-02-18T17:20:52;7.40;99.90
5041;DHT22;2539;52.568;13.364;2023-02-18T17:23:21;7.30;99.90
5041;DHT22;2539;52.568;13.364;2023-02-18T17:25:49;7.30;99.90
5041;DHT22;2539;52.568;13.364;2023-02-18T17:28:16;7.20;99.90
5041;DHT22;2539;52.568;13.364;2023-02-18T17:30:47;7.20;99.90
5041;DHT22;2539;52.568;13.364;2023-02-18T17:33:16;7.20;99.90
5041;DHT22;2539;52.568;13.364;2023-02-18T17:43:05;7.10;99.90
5041;DHT22;2539;52.568;13.364;2023-02-18T17:45:41;7.10;99.90
5041;DHT22;2539;52.568;13.364;2023-02-18T17:48:08;7.10;99.90
5041;DHT22;2539;52.568;13.364;2023-02-18T17:54:18;7.10;99.90
5041;DHT22;2539;52.568;13.364;2023-02-18T17:56:45;7.00;99.90
5041;DHT22;2539;52.568;13.364;2023-02-18T17:59:11;7.10;99.90
5041;DHT22;2539;52.568;13.364;2023-02-18T18:01:38;7.10;99.90
5041;DHT22;2539;52.568;13.364;2023-02-18T18:04:11;7.10;99.90
5041;DHT22;2539;52.568;13.364;2023-02-18T18:06:38;7.00;99.90
5041;DHT22;2539;52.568;13.364;2023-02-18T18:09:04;7.10;99.90
5041;DHT22;2539;52.568;13.364;2023-02-18T18:11:30;7.00;99.90
5041;DHT22;2539;52.568;13.364;2023-02-18T18:13:58;7.00;99.90
5041;DHT22;2539;52.568;13.364;2023-02-18T18:16:25;6.90;99.90
5041;DHT22;2539;52.568;13.364;2023-02-18T18:18:51;7.00;99.90
5041;DHT22;2539;52.568;13.364;2023-02-18T18:21:22;6.90;99.90
5041;DHT22;2539;52.568;13.364;2023-02-18T18:23:49;6.90;99.90
5041;DHT22;2539;52.568;13.364;2023-02-18T18:26:15;7.00;99.90
5041;DHT22;2539;52.568;13.364;2023-02-18T18:28:42;6.90;99.90
5041;DHT22;2539;52.568;13.364;2023-02-18T18:31:12;6.90;99.90
5041;DHT22;2539;52.568;13.364;2023-02-18T18:33:40;6.90;99.90
5041;DHT22;2539;52.568;13.364;2023-02-18T18:36:06;6.90;99.90
5041;DHT22;2539;52.568;13.364;2023-02-18T18:38:32;6.90;99.90
5041;DHT22;2539;52.568;13.364;2023-02-18T18:51:03;6.70;99.90
5041;DHT22;2539;52.568;13.364;2023-02-18T18:53:32;6.70;99.90
5041;DHT22;2539;52.568;13.364;2023-02-18T18:56:05;6.60;99.90
5041;DHT22;2539;52.568;13.364;2023-02-18T18:58:32;6.60;99.90
5041;DHT22;2539;52.568;13.364;2023-02-18T19:01:00;6.50;99.90
5041;DHT22;2539;52.568;13.364;2023-02-18T19:03:28;6.40;99.90